Time;durP1;ratioP1;P1;durP2;ratioP2;P2;SDS_P1;SDS_P2;PMS_P1;PMS_P2;Temp;Humidity;BMP_temperature;BMP_pressure;BME280_temperature;BME280_humidity;BME280_pressure;Samples;Min_cycle;Max_cycle;Signal;HPM_P1;HPM_P2
2022/06/06 00:02:06;;;;;;;2.30;1.25;;;;;;;22.97;57.08;101289.44;5030389;28;20427;-54
2022/06/06 00:04:33;;;;;;;2.90;1.60;;;;;;;22.86;56.77;101290.53;5030372;28;20425;-50
2022/06/06 00:06:59;;;;;;;2.45;1.73;;;;;;;22.45;57.13;101295.25;5031735;28;20029;-53
2022/06/06 00:09:28;;;;;;;2.88;1.88;;;;;;;22.06;57.78;101293.06;5030319;28;20029;-49
2022/06/06 00:12:01;;;;;;;3.92;1.25;;;;;;;21.64;59.67;101304.97;5031485;28;20026;-50
2022/06/06 00:14:27;;;;;;;2.65;1.42;;;;;;;21.61;60.20;101300.88;5030581;28;20030;-58
2022/06/06 00:16:54;;;;;;;1.73;1.40;;;;;;;21.53;61.83;101293.22;5031196;28;20021;-59
2022/06/06 00:19:20;;;;;;;2.70;1.77;;;;;;;21.52;60.67;101293.50;5029448;28;20056;-58
2022/06/06 00:21:47;;;;;;;2.33;1.60;;;;;;;21.43;61.79;101298.66;5031405;28;20549;-58
2022/06/06 00:24:14;;;;;;;2.85;1.80;;;;;;;21.22;61.11;101297.72;5030147;28;20060;-58
2022/06/06 00:26:42;;;;;;;1.80;1.52;;;;;;;21.32;61.46;101299.69;5034608;28;20072;-58
2022/06/06 00:29:09;;;;;;;2.55;1.90;;;;;;;21.52;61.39;101304.38;5034456;28;20041;-59
2022/06/06 00:37:08;;;;;;;5.10;1.52;;;;;;;21.40;61.54;101298.38;5035762;28;20612;-58
2022/06/06 00:39:35;;;;;;;2.13;1.48;;;;;;;21.43;61.03;101293.22;5022024;28;20040;-59
2022/06/06 00:42:01;;;;;;;2.42;1.42;;;;;;;21.36;61.18;101298.06;5015455;28;20029;-58
2022/06/06 00:44:31;;;;;;;3.10;1.60;;;;;;;21.43;61.54;101292.38;5028384;28;20098;-58
2022/06/06 00:47:13;;;;;;;2.53;1.73;;;;;;;21.59;62.17;101288.59;5035485;28;20482;-59
2022/06/06 00:49:52;;;;;;;2.20;1.45;;;;;;;21.54;61.59;101291.31;5034202;28;20049;-59
2022/06/06 00:52:28;;;;;;;2.03;1.52;;;;;;;21.50;61.01;101284.78;5034902;28;20049;-59
2022/06/06 00:55:00;;;;;;;2.40;1.40;;;;;;;21.46;60.90;101287.22;5034376;28;20425;-58
2022/06/06 00:57:34;;;;;;;2.20;1.35;;;;;;;21.55;61.55;101287.53;5034046;28;20100;-58
2022/06/06 01:00:09;;;;;;;3.63;1.77;;;;;;;21.42;61.89;101288.00;5034917;28;20037;-59
2022/06/06 01:02:36;;;;;;;;;;;;;;;21.32;61.87;101288.78;5034798;28;20047;-59
2022/06/06 01:05:03;;;;;;;4.15;2.08;;;;;;;21.55;60.63;101290.25;5034917;28;19965;-59
2022/06/06 01:07:29;;;;;;;3.08;2.42;;;;;;;21.40;61.67;101290.19;5033919;28;20056;-58
2022/06/06 01:09:55;;;;;;;3.47;2.10;;;;;;;21.11;61.72;101287.06;5034487;28;20120;-58
2022/06/06 01:12:23;;;;;;;2.67;1.83;;;;;;;20.97;61.47;101295.69;5029386;28;20413;-57
2022/06/06 01:14:57;;;;;;;2.60;1.90;;;;;;;21.02;62.42;101293.00;5036063;28;20493;-59
2022/06/06 01:17:29;;;;;;;4.07;1.83;;;;;;;20.82;62.51;101290.16;5028113;28;20112;-58
2022/06/06 01:20:31;;;;;;;3.80;2.25;;;;;;;20.91;62.13;101287.78;5034517;28;20029;-58
2022/06/06 01:23:28;;;;;;;2.65;1.90;;;;;;;20.91;61.93;101285.03;5020949;28;20133;-58
2022/06/06 01:26:12;;;;;;;3.17;2.30;;;;;;;20.88;62.20;101277.44;5014202;28;20044;-57
2022/06/06 01:28:53;;;;;;;3.70;1.83;;;;;;;20.80;62.63;101284.97;5022641;28;20025;-57
2022/06/06 01:31:30;;;;;;;1.80;1.40;;;;;;;20.77;62.58;101285.53;5046536;28;20492;-58
2022/06/06 01:34:02;;;;;;;3.22;1.80;;;;;;;20.92;61.65;101279.31;5022456;28;20122;-58
2022/06/06 01:36:30;;;;;;;3.05;1.85;;;;;;;21.21;61.47;101277.03;5033955;28;20351;-58
2022/06/06 01:39:00;;;;;;;3.85;1.70;;;;;;;21.37;61.04;101285.28;5019532;28;20022;-58
2022/06/06 01:42:01;;;;;;;2.17;1.50;;;;;;;21.46;59.83;101281.78;5014252;28;20324;-57
2022/06/06 01:44:48;;;;;;;1.77;1.35;;;;;;;21.73;60.51;101275.28;5013867;28;20081;-58
2022/06/06 01:47:29;;;;;;;2.67;1.30;;;;;;;21.98;58.82;101274.50;5015875;28;20034;-58
2022/06/06 01:49:57;;;;;;;3.22;1.17;;;;;;;22.27;57.52;101267.47;5019136;28;20033;-57
2022/06/06 01:52:23;;;;;;;2.55;1.50;;;;;;;22.22;57.70;101274.81;5033951;28;20034;-57
2022/06/06 01:54:54;;;;;;;1.58;1.23;;;;;;;22.14;58.15;101284.34;5034075;28;20025;-57
2022/06/06 01:57:22;;;;;;;2.28;1.42;;;;;;;22.02;58.17;101284.59;5033440;28;20116;-58
2022/06/06 01:59:51;;;;;;;2.20;1.50;;;;;;;21.96;58.08;101285.69;5032619;28;20017;-58
2022/06/06 02:02:18;;;;;;;2.08;1.48;;;;;;;21.79;58.93;101294.09;5032349;28;20087;-58
2022/06/06 02:04:45;;;;;;;2.20;1.17;;;;;;;21.74;58.23;101291.38;5034025;28;20055;-58
2022/06/06 02:07:11;;;;;;;1.95;1.42;;;;;;;21.86;58.29;101294.66;5044723;28;20025;-49
2022/06/06 02:09:37;;;;;;;2.17;1.23;;;;;;;21.86;58.42;101285.66;5032114;28;20046;-50
2022/06/06 02:12:04;;;;;;;1.55;1.00;;;;;;;21.69;59.77;101282.38;5017877;28;20108;-51
2022/06/06 02:14:30;;;;;;;1.83;1.40;;;;;;;21.62;59.80;101279.91;5031092;28;20053;-49
2022/06/06 02:16:56;;;;;;;1.80;1.30;;;;;;;21.44;59.58;101281.22;5033596;28;20580;-51
2022/06/06 02:19:23;;;;;;;2.28;1.15;;;;;;;21.56;59.14;101286.44;5032328;28;20038;-49
2022/06/06 02:21:49;;;;;;;1.73;1.17;;;;;;;21.29;59.80;101283.84;5039706;22;20093;-48
2022/06/06 02:24:15;;;;;;;2.55;1.40;;;;;;;20.89;61.10;101279.06;5033553;28;20068;-50
2022/06/06 02:26:42;;;;;;;3.83;1.60;;;;;;;20.28;62.99;101274.81;5032743;28;20052;-49
2022/06/06 02:29:08;;;;;;;3.05;1.30;;;;;;;20.55;62.42;101282.13;5033047;28;20025;-49
2022/06/06 02:31:37;;;;;;;2.60;2.00;;;;;;;20.49;62.76;101275.00;5033216;28;20363;-49
2022/06/06 02:34:08;;;;;;;1.67;1.30;;;;;;;20.44;63.45;101277.66;5033142;28;20059;-49
2022/06/06 02:36:35;;;;;;;1.52;1.20;;;;;;;20.28;63.74;101269.38;5032940;28;20025;-52
2022/06/06 02:39:02;;;;;;;3.70;1.30;;;;;;;20.04;64.20;101278.94;5030612;28;20025;-50
2022/06/06 02:41:28;;;;;;;2.03;1.13;;;;;;;20.21;63.91;101273.38;5018087;28;20541;-48
2022/06/06 02:43:56;;;;;;;1.80;1.30;;;;;;;20.25;64.38;101269.06;5032949;28;20060;-49
2022/06/06 02:46:22;;;;;;;2.00;1.20;;;;;;;20.10;64.09;101264.34;5032181;28;20037;-48
2022/06/06 02:48:48;;;;;;;2.63;1.27;;;;;;;20.17;63.75;101269.56;5031409;28;20030;-48
2022/06/06 02:51:15;;;;;;;3.40;1.40;;;;;;;20.15;64.17;101267.09;5034269;28;20470;-49
2022/06/06 02:53:41;;;;;;;2.17;1.30;;;;;;;20.04;65.31;101273.50;5043452;28;20030;-49
2022/06/06 02:56:07;;;;;;;2.67;1.50;;;;;;;20.02;64.56;101276.50;5032634;28;20474;-49
2022/06/06 02:58:34;;;;;;;1.55;0.95;;;;;;;19.97;64.71;101272.91;5032519;28;20052;-49
2022/06/06 03:01:04;;;;;;;2.00;1.38;;;;;;;19.92;65.37;101267.44;5032669;28;20095;-52
2022/06/06 03:03:32;;;;;;;1.90;1.00;;;;;;;19.94;65.06;101273.44;5034748;28;20040;-49
2022/06/06 03:06:05;;;;;;;1.60;1.05;;;;;;;19.87;65.59;101275.53;5052602;28;20040;-49
2022/06/06 03:09:05;;;;;;;1.60;1.20;;;;;;;19.87;65.32;101279.06;5048867;28;20029;-49
2022/06/06 03:12:16;;;;;;;1.95;1.20;;;;;;;19.57;66.31;101278.75;5032528;28;20104;-49
2022/06/06 03:15:14;;;;;;;1.60;1.17;;;;;;;19.76;66.74;101286.28;5032460;28;20056;-49
2022/06/06 03:20:58;;;;;;;2.10;1.33;;;;;;;19.52;67.37;101266.75;5012167;28;20049;-52
2022/06/06 03:23:41;;;;;;;1.65;0.82;;;;;;;19.70;66.89;101273.75;5011732;28;20513;-49
2022/06/06 03:26:26;;;;;;;2.30;1.10;;;;;;;19.82;66.32;101286.34;5026311;28;20033;-48
2022/06/06 03:29:11;;;;;;;3.22;0.73;;;;;;;19.84;66.21;101292.38;5020616;28;20056;-51
2022/06/06 03:31:55;;;;;;;1.48;1.13;;;;;;;19.85;66.20;101304.88;5028641;28;20045;-53
2022/06/06 03:34:35;;;;;;;3.40;1.10;;;;;;;19.86;66.00;101301.06;5012404;28;20081;-53
2022/06/06 03:37:21;;;;;;;1.25;0.70;;;;;;;19.65;66.75;101305.47;5019920;28;20026;-53
2022/06/06 03:39:53;;;;;;;2.15;1.27;;;;;;;19.67;66.88;101301.44;5034570;28;20099;-52
2022/06/06 03:42:34;;;;;;;1.38;0.95;;;;;;;19.62;67.01;101301.38;5032031;28;20394;-53
2022/06/06 03:45:30;;;;;;;1.63;1.00;;;;;;;19.88;66.01;101307.09;5031673;28;20022;-53
2022/06/06 03:48:33;;;;;;;1.83;1.20;;;;;;;19.56;66.49;101305.06;5006131;28;20037;-50
2022/06/06 03:51:23;;;;;;;2.25;0.98;;;;;;;19.34;67.48;101307.81;5032111;28;20112;-51
2022/06/06 03:54:01;;;;;;;1.42;0.80;;;;;;;19.15;68.11;101301.84;5031764;28;20029;-53
2022/06/06 03:56:45;;;;;;;1.85;1.00;;;;;;;19.07;68.46;101312.34;5049479;28;20354;-53
2022/06/06 03:59:14;;;;;;;2.30;1.08;;;;;;;19.15;67.74;101312.72;5051595;28;20049;-50
2022/06/06 04:01:42;;;;;;;1.90;1.08;;;;;;;19.04;68.37;101305.50;5046947;28;20067;-51
2022/06/06 04:04:09;;;;;;;1.17;0.98;;;;;;;19.18;67.71;101304.06;5036048;28;20029;-50
2022/06/06 04:06:36;;;;;;;2.78;1.25;;;;;;;19.14;67.71;101302.94;5018404;28;20065;-53
2022/06/06 04:09:03;;;;;;;1.73;1.15;;;;;;;18.94;68.75;101305.41;5035649;28;20025;-50
2022/06/06 04:11:36;;;;;;;2.05;1.15;;;;;;;18.98;68.51;101309.22;5035934;28;20056;-53
2022/06/06 04:14:29;;;;;;;2.35;1.17;;;;;;;18.76;69.18;101317.31;5033173;28;20314;-53
2022/06/06 04:17:16;;;;;;;2.60;1.10;;;;;;;18.85;69.31;101318.53;5015546;28;20497;-53
2022/06/06 04:20:00;;;;;;;3.35;1.20;;;;;;;18.82;69.14;101320.94;5032520;28;20073;-52
2022/06/06 04:22:52;;;;;;;1.73;0.90;;;;;;;18.41;70.75;101323.81;5014410;28;20049;-53
2022/06/06 04:25:46;;;;;;;2.08;1.10;;;;;;;18.78;69.75;101322.50;5018020;28;20512;-51
2022/06/06 04:28:28;;;;;;;2.63;1.30;;;;;;;18.76;69.43;101330.06;5030237;28;20533;-51
2022/06/06 04:31:20;;;;;;;2.08;0.90;;;;;;;18.44;70.71;101336.06;5015769;28;20430;-50
2022/06/06 04:33:49;;;;;;;1.95;0.80;;;;;;;18.42;71.00;101335.47;5036862;28;20033;-53
2022/06/06 04:36:24;;;;;;;1.65;1.10;;;;;;;18.59;70.55;101344.41;5037224;28;20060;-50
2022/06/06 04:39:20;;;;;;;1.50;0.90;;;;;;;18.63;70.38;101350.19;5035811;28;20025;-52
2022/06/06 04:42:02;;;;;;;1.83;0.90;;;;;;;18.48;70.78;101353.44;5018319;28;20034;-52
2022/06/06 04:44:41;;;;;;;1.58;0.93;;;;;;;18.48;70.90;101353.44;5015139;28;20037;-50
2022/06/06 04:47:12;;;;;;;1.38;0.80;;;;;;;18.68;70.68;101353.81;5015173;28;20029;-49
2022/06/06 04:49:39;;;;;;;3.55;1.80;;;;;;;18.79;70.35;101364.84;5014948;28;20026;-50
2022/06/06 04:52:06;;;;;;;6.70;2.40;;;;;;;18.69;70.13;101362.78;5018648;28;20395;-50
2022/06/06 04:54:38;;;;;;;6.22;2.78;;;;;;;18.72;70.57;101368.53;5034647;28;20032;-50
2022/06/06 04:57:06;;;;;;;4.10;1.80;;;;;;;18.77;70.46;101370.50;5017824;28;20021;-51
2022/06/06 04:59:34;;;;;;;3.38;1.50;;;;;;;18.89;69.74;101375.84;5034303;28;20421;-52
2022/06/06 05:02:02;;;;;;;1.85;1.00;;;;;;;18.82;69.93;101388.72;5035057;28;20037;-50
2022/06/06 05:04:29;;;;;;;2.70;1.30;;;;;;;18.55;71.31;101383.97;5034471;28;20028;-53
2022/06/06 05:07:25;;;;;;;1.65;1.05;;;;;;;18.62;71.12;101397.34;5016510;28;20550;-50
2022/06/06 05:10:25;;;;;;;2.58;1.27;;;;;;;18.69;70.92;101393.41;5016078;28;20060;-54
2022/06/06 05:13:26;;;;;;;1.65;1.05;;;;;;;18.49;71.55;101393.06;5013392;28;20113;-52
2022/06/06 05:16:16;;;;;;;1.95;1.15;;;;;;;18.46;71.46;101396.25;5014706;28;20037;-54
2022/06/06 05:19:06;;;;;;;2.35;0.98;;;;;;;18.62;71.23;101392.75;5022535;28;20071;-50
2022/06/06 05:21:44;;;;;;;2.65;1.40;;;;;;;18.82;70.38;101396.88;5017795;28;20148;-52
2022/06/06 05:24:44;;;;;;;2.00;1.08;;;;;;;18.96;69.68;101407.13;5026518;28;20037;-53
2022/06/06 05:27:37;;;;;;;2.45;1.20;;;;;;;18.96;69.81;101404.44;5025818;28;20108;-53
2022/06/06 05:30:11;;;;;;;1.40;0.95;;;;;;;18.87;70.23;101405.09;5014796;28;20438;-54
2022/06/06 05:32:49;;;;;;;2.03;1.30;;;;;;;18.93;69.90;101404.09;5033961;28;20022;-54
2022/06/06 05:35:33;;;;;;;4.32;1.50;;;;;;;18.92;69.99;101408.69;5014166;28;20030;-54
2022/06/06 05:38:02;;;;;;;3.05;1.15;;;;;;;19.05;69.66;101418.41;5014732;28;20034;-54
2022/06/06 05:40:38;;;;;;;2.55;1.40;;;;;;;19.07;69.66;101415.44;5016879;28;20025;-51
2022/06/06 05:43:23;;;;;;;3.88;1.50;;;;;;;19.21;69.22;101419.44;5014951;28;20030;-53
2022/06/06 05:46:05;;;;;;;2.43;1.43;;;;;;;19.26;69.10;101414.91;5023699;28;20120;-50
2022/06/06 05:48:46;;;;;;;1.65;1.23;;;;;;;19.19;69.59;101427.84;5019888;28;20052;-53
2022/06/06 05:51:56;;;;;;;3.55;1.50;;;;;;;19.30;68.95;101430.69;5033731;28;20102;-54
2022/06/06 05:54:52;;;;;;;1.52;0.80;;;;;;;19.10;68.72;101432.06;4976383;28;20774;-54
2022/06/06 05:57:52;;;;;;;2.90;1.48;;;;;;;19.07;69.74;101427.13;5013399;28;20026;-53
2022/06/06 06:00:25;;;;;;;2.33;1.38;;;;;;;19.11;69.26;101416.59;5032638;28;20029;-53
2022/06/06 06:03:25;;;;;;;4.25;1.48;;;;;;;19.18;69.60;101418.06;5032012;28;20135;-53
2022/06/06 06:06:21;;;;;;;2.60;1.50;;;;;;;19.30;69.04;101422.56;5029717;28;20044;-53
2022/06/06 06:09:03;;;;;;;2.20;1.10;;;;;;;19.19;69.10;101413.44;5012871;28;20037;-53
2022/06/06 06:11:56;;;;;;;3.05;1.30;;;;;;;19.11;69.58;101412.00;5023801;28;20021;-54
2022/06/06 06:14:34;;;;;;;1.88;1.30;;;;;;;19.39;68.54;101407.50;5015774;28;20104;-52
2022/06/06 06:17:03;;;;;;;4.68;1.77;;;;;;;19.43;68.74;101405.91;5032930;28;20029;-52
2022/06/06 06:19:45;;;;;;;4.05;1.70;;;;;;;19.43;68.20;101414.03;5033244;28;20033;-52
2022/06/06 06:22:14;;;;;;;4.95;1.02;;;;;;;19.14;66.88;101411.47;5032505;28;20052;-50
2022/06/06 06:24:42;;;;;;;1.92;0.43;;;;;;;18.85;66.19;101418.09;5028097;28;20037;-52
2022/06/06 06:27:10;;;;;;;1.00;0.40;;;;;;;18.71;66.41;101407.56;5012969;28;20116;-51
2022/06/06 06:29:37;;;;;;;0.88;0.50;;;;;;;18.56;67.08;101406.47;5013177;28;20030;-51
2022/06/06 06:32:12;;;;;;;1.92;0.60;;;;;;;18.50;66.64;101410.16;5011568;28;20433;-51
2022/06/06 06:34:57;;;;;;;0.80;0.50;;;;;;;18.23;67.77;101409.94;5021753;28;20029;-52
2022/06/06 06:37:38;;;;;;;0.77;0.57;;;;;;;18.16;67.70;101404.69;5032351;28;20085;-51
2022/06/06 06:40:24;;;;;;;2.08;0.75;;;;;;;17.91;68.38;101394.16;5032553;28;20030;-49
2022/06/06 06:43:30;;;;;;;1.05;0.50;;;;;;;18.07;68.29;101387.97;5032975;28;20053;-51
2022/06/06 06:46:28;;;;;;;1.77;0.50;;;;;;;18.17;68.31;101395.47;4981980;28;20033;-50
2022/06/06 06:49:21;;;;;;;2.30;0.60;;;;;;;18.16;68.39;101412.81;5024060;28;20120;-50
2022/06/06 06:52:11;;;;;;;0.90;0.50;;;;;;;18.06;68.44;101416.13;5031818;28;20037;-51
2022/06/06 06:54:58;;;;;;;0.90;0.50;;;;;;;18.11;67.81;101429.78;5031682;28;20386;-51
2022/06/06 06:57:51;;;;;;;1.70;0.60;;;;;;;17.99;68.36;101428.16;5024481;28;20445;-52
2022/06/06 07:00:20;;;;;;;1.35;0.47;;;;;;;17.89;67.67;101415.25;5018776;28;20063;-51
2022/06/06 07:08:55;;;;;;;1.08;0.75;;;;;;;17.99;66.73;101407.34;5022045;28;20459;-50
2022/06/06 07:11:27;;;;;;;1.55;1.00;;;;;;;17.79;66.66;101398.81;5012299;28;20722;-52
2022/06/06 07:14:06;;;;;;;1.75;0.75;;;;;;;17.85;66.40;101392.41;5012573;28;20022;-50
2022/06/06 07:16:35;;;;;;;1.02;0.70;;;;;;;17.85;66.31;101387.00;5028403;28;20025;-51
2022/06/06 07:19:12;;;;;;;1.77;0.70;;;;;;;17.91;66.10;101386.03;5031929;28;20061;-52
2022/06/06 07:21:41;;;;;;;1.02;0.70;;;;;;;17.97;65.71;101397.78;5023462;28;20072;-49
2022/06/06 07:24:10;;;;;;;2.28;0.50;;;;;;;17.98;65.63;101402.13;5012559;28;20359;-50
2022/06/06 07:26:41;;;;;;;1.00;0.52;;;;;;;17.87;64.00;101404.66;5028635;28;20060;-50
2022/06/06 07:29:13;;;;;;;0.55;0.55;;;;;;;17.79;63.54;101401.50;5031524;28;20539;-53
2022/06/06 07:32:01;;;;;;;0.73;0.65;;;;;;;18.01;62.89;101407.91;5031532;28;20035;-49
2022/06/06 07:34:37;;;;;;;0.65;0.63;;;;;;;17.80;62.65;101411.28;5031469;28;20037;-49
2022/06/06 07:37:31;;;;;;;2.47;1.30;;;;;;;17.76;62.68;101410.09;5031351;28;20075;-51
2022/06/06 07:40:34;;;;;;;1.70;0.70;;;;;;;17.82;62.33;101414.56;5032243;28;20040;-52
2022/06/06 07:43:16;;;;;;;0.80;0.55;;;;;;;17.72;61.43;101415.19;5024529;28;20437;-50
2022/06/06 07:45:46;;;;;;;0.60;0.60;;;;;;;17.53;61.86;101409.06;5011766;28;20022;-50
2022/06/06 07:48:30;;;;;;;4.05;0.70;;;;;;;17.34;62.37;101411.09;5011580;28;20076;-49
2022/06/06 07:51:06;;;;;;;1.05;0.68;;;;;;;17.50;61.16;101412.25;5012466;28;20026;-52
2022/06/06 07:53:58;;;;;;;0.50;0.50;;;;;;;17.49;61.65;101415.19;5011919;28;20371;-52
2022/06/06 07:56:47;;;;;;;1.95;0.75;;;;;;;17.24;62.30;101424.41;4984764;28;20505;-50
2022/06/06 07:59:35;;;;;;;0.93;0.50;;;;;;;17.18;62.24;101403.69;5030913;28;20108;-50
2022/06/06 08:02:32;;;;;;;0.95;0.60;;;;;;;17.11;62.83;101398.41;5019592;28;20117;-50
2022/06/06 08:05:20;;;;;;;1.38;0.90;;;;;;;17.18;61.97;101413.69;5024234;28;20478;-49
2022/06/06 08:08:07;;;;;;;1.42;0.70;;;;;;;17.04;62.31;101405.81;5031214;28;20077;-50
2022/06/06 08:10:44;;;;;;;2.15;0.70;;;;;;;16.96;62.57;101399.94;5031381;28;20030;-52
2022/06/06 08:13:30;;;;;;;1.42;0.60;;;;;;;16.95;63.30;101398.31;5031336;28;20030;-49
2022/06/06 08:16:13;;;;;;;1.67;0.88;;;;;;;16.92;63.15;101401.47;5031215;28;20099;-50
2022/06/06 08:19:17;;;;;;;1.75;0.60;;;;;;;16.94;63.05;101396.66;5030970;28;20026;-50
2022/06/06 08:21:47;;;;;;;1.42;0.70;;;;;;;16.92;63.09;101396.88;4950757;29;20300;-52
2022/06/06 08:24:22;;;;;;;2.05;0.80;;;;;;;16.75;63.54;101395.91;5018874;28;20041;-51
2022/06/06 08:26:51;;;;;;;1.55;0.70;;;;;;;16.80;63.60;101399.56;5031184;28;20466;-50
2022/06/06 08:29:18;;;;;;;1.55;0.77;;;;;;;16.74;63.42;101403.22;5031094;28;20389;-50
2022/06/06 08:31:45;;;;;;;0.60;0.60;;;;;;;16.74;63.33;101394.28;5031144;28;20041;-49
2022/06/06 08:34:14;;;;;;;1.58;0.70;;;;;;;16.73;63.50;101398.03;5031110;28;20048;-50
2022/06/06 08:37:13;;;;;;;1.20;1.00;;;;;;;16.87;62.54;101388.63;5031041;28;20029;-49
2022/06/06 08:40:00;;;;;;;1.52;0.82;;;;;;;16.64;63.68;101384.00;5011570;28;20044;-49
2022/06/06 08:43:03;;;;;;;0.90;0.70;;;;;;;16.71;63.62;101379.38;5014243;28;20034;-52
2022/06/06 08:45:47;;;;;;;1.75;0.65;;;;;;;16.75;62.52;101375.13;4986925;28;20042;-49
2022/06/06 08:49:01;;;;;;;1.33;0.73;;;;;;;16.66;63.34;101364.84;5032985;28;20036;-52
2022/06/06 08:51:47;;;;;;;1.35;0.70;;;;;;;16.66;63.45;101368.41;5037632;28;20063;-49
2022/06/06 08:54:37;;;;;;;1.35;0.60;;;;;;;16.76;61.89;101375.94;5017140;28;20025;-50
2022/06/06 08:57:26;;;;;;;1.80;0.80;;;;;;;16.79;61.03;101384.41;5034198;28;20116;-50
2022/06/06 08:59:55;;;;;;;1.55;0.60;;;;;;;16.57;60.76;101369.78;4997732;28;20065;-51
2022/06/06 09:02:30;;;;;;;4.05;0.90;;;;;;;16.57;60.75;101361.66;5022640;28;20556;-49
2022/06/06 09:05:09;;;;;;;1.40;0.77;;;;;;;16.57;60.75;101358.97;5027751;28;20159;-51
2022/06/06 09:08:12;;;;;;;1.88;0.70;;;;;;;16.45;61.26;101364.34;5033933;28;20410;-51
2022/06/06 09:10:47;;;;;;;0.95;0.70;;;;;;;16.53;60.87;101368.59;5034861;28;20537;-52
2022/06/06 09:13:43;;;;;;;;;;;;;;;16.49;61.03;101368.25;5034456;28;20106;-49
2022/06/06 09:16:09;;;;;;;1.02;0.63;;;;;;;16.57;60.63;101367.91;5034304;28;20388;-50
2022/06/06 09:19:03;;;;;;;0.93;0.63;;;;;;;16.66;60.14;101372.94;5034145;28;20029;-51
2022/06/06 09:21:53;;;;;;;0.77;0.68;;;;;;;16.62;60.17;101368.03;5034212;28;20539;-50
2022/06/06 09:25:04;;;;;;;2.60;0.80;;;;;;;16.62;60.05;101368.03;5033952;28;20028;-49
2022/06/06 09:27:58;;;;;;;0.80;0.63;;;;;;;16.57;60.34;101369.78;5025444;28;20046;-49
2022/06/06 09:31:08;;;;;;;2.33;0.73;;;;;;;16.60;59.25;101367.44;5014159;28;20061;-52
2022/06/06 09:34:06;;;;;;;2.20;0.80;;;;;;;16.61;59.85;101374.50;4953315;29;20083;-50
2022/06/06 09:36:38;;;;;;;1.63;0.50;;;;;;;16.53;60.14;101385.63;5006198;28;20046;-49
2022/06/06 09:39:31;;;;;;;3.83;0.88;;;;;;;16.53;59.27;101380.22;5014026;28;20437;-49
2022/06/06 09:42:06;;;;;;;1.55;0.70;;;;;;;16.47;60.30;101364.13;5014168;28;20034;-50
2022/06/06 09:44:35;;;;;;;;;;;;;;;16.54;59.52;101376.47;5018161;28;20033;-49
2022/06/06 09:47:15;;;;;;;2.45;0.65;;;;;;;16.30;60.24;101386.41;5017906;28;19920;-51
2022/06/06 09:50:15;;;;;;;1.20;0.85;;;;;;;16.22;61.30;101389.44;5017815;28;20551;-48
2022/06/06 09:53:18;;;;;;;2.42;0.90;;;;;;;16.29;60.71;101384.75;5033600;28;20540;-53
2022/06/06 09:59:22;;;;;;;2.08;0.60;;;;;;;16.17;61.56;101383.09;5032990;28;20083;-49
2022/06/06 10:02:16;;;;;;;1.30;0.80;;;;;;;16.31;61.09;101398.84;5013879;28;20534;-51
2022/06/06 10:05:03;;;;;;;2.05;0.75;;;;;;;16.37;61.00;101399.81;5015832;28;20029;-49
2022/06/06 10:07:37;;;;;;;2.45;0.90;;;;;;;16.40;60.59;101395.84;5033304;28;20104;-50
2022/06/06 10:10:22;;;;;;;1.77;0.77;;;;;;;16.54;60.13;101398.06;5025100;28;20018;-49
2022/06/06 10:13:07;;;;;;;1.88;0.80;;;;;;;16.35;60.69;101385.72;5033450;28;20159;-49
2022/06/06 10:15:57;;;;;;;2.50;0.80;;;;;;;16.46;60.32;101373.28;5031053;28;20069;-52
2022/06/06 10:18:59;;;;;;;2.22;1.02;;;;;;;16.46;61.10;101394.91;5023299;28;20332;-50
2022/06/06 10:21:41;;;;;;;1.10;0.82;;;;;;;16.55;60.27;101380.00;5031883;28;20053;-49
2022/06/06 10:24:14;;;;;;;2.70;0.88;;;;;;;16.59;60.19;101384.69;5031744;28;20120;-49
2022/06/06 10:26:52;;;;;;;5.03;1.20;;;;;;;16.45;61.12;101394.09;5032880;28;20082;-49
2022/06/06 10:32:43;;;;;;;2.25;0.68;;;;;;;16.52;61.12;101383.97;4998489;28;20452;-49
2022/06/06 10:35:42;;;;;;;1.98;1.00;;;;;;;16.51;61.40;101387.75;5032726;28;20025;-50
2022/06/06 10:38:51;;;;;;;2.30;0.80;;;;;;;16.52;61.13;101386.69;5031852;28;20022;-51
2022/06/06 10:41:54;;;;;;;2.17;1.05;;;;;;;16.59;60.95;101373.06;5032816;28;20080;-50
2022/06/06 10:44:54;;;;;;;3.45;0.75;;;;;;;16.49;61.20;101381.75;5031630;28;20104;-50
2022/06/06 10:47:20;;;;;;;1.98;0.90;;;;;;;16.51;61.64;101379.63;5032503;28;20060;-49
2022/06/06 10:49:55;;;;;;;1.23;0.60;;;;;;;16.41;61.90;101390.19;5031458;28;20207;-50
2022/06/06 10:52:55;;;;;;;4.63;1.20;;;;;;;16.47;62.40;101385.75;5031599;28;20117;-47
2022/06/06 10:55:56;;;;;;;2.88;1.40;;;;;;;16.42;63.79;101388.31;4996508;28;20025;-50
2022/06/06 10:58:37;;;;;;;5.30;1.40;;;;;;;16.37;64.47;101380.88;5032320;28;20481;-50
2022/06/06 11:01:25;;;;;;;3.05;1.35;;;;;;;16.24;65.43;101384.63;5031555;28;20033;-49
2022/06/06 11:04:09;;;;;;;4.88;1.75;;;;;;;16.01;67.46;101384.53;5031084;28;20049;-49
2022/06/06 11:06:53;;;;;;;11.30;2.80;;;;;;;16.15;67.47;101387.88;5031173;28;20095;-49
2022/06/06 11:09:53;;;;;;;4.00;1.90;;;;;;;15.91;68.27;101398.56;5023527;28;20045;-50
2022/06/06 11:12:40;;;;;;;7.18;2.05;;;;;;;15.83;68.25;101391.63;5012521;28;20061;-49
2022/06/06 11:15:07;;;;;;;6.38;2.03;;;;;;;15.66;69.17;101385.22;5018415;28;20033;-50
2022/06/06 11:17:35;;;;;;;5.75;1.98;;;;;;;15.70;69.22;101385.56;5031843;28;20021;-50
2022/06/06 11:20:26;;;;;;;5.13;2.13;;;;;;;15.71;69.21;101382.66;5030970;28;20029;-49
2022/06/06 11:23:13;;;;;;;9.63;2.47;;;;;;;15.53;69.66;101375.34;5031682;28;20037;-52
2022/06/06 11:26:09;;;;;;;7.78;2.15;;;;;;;15.58;69.51;101378.19;5027823;28;20036;-51
2022/06/06 11:28:53;;;;;;;5.15;2.13;;;;;;;15.42;70.22;101368.00;5042502;28;20025;-54
2022/06/06 11:31:25;;;;;;;6.00;2.28;;;;;;;15.31;70.54;101369.56;5047281;28;20030;-48
2022/06/06 11:34:08;;;;;;;7.60;2.28;;;;;;;15.31;70.73;101363.34;5031259;28;20055;-52
2022/06/06 11:36:59;;;;;;;5.10;2.08;;;;;;;15.25;70.94;101369.66;5031486;28;20552;-52
2022/06/06 11:39:46;;;;;;;9.15;2.50;;;;;;;14.83;72.60;101364.06;5031666;28;20056;-52
2022/06/06 11:42:45;;;;;;;7.82;2.00;;;;;;;14.88;72.63;101358.84;5029807;28;20045;-52
2022/06/06 11:45:42;;;;;;;9.52;2.40;;;;;;;14.94;72.58;101371.44;5046122;28;20031;-49
2022/06/06 11:48:35;;;;;;;6.82;2.05;;;;;;;14.89;72.23;101390.13;5046185;28;20171;-50
2022/06/06 11:51:17;;;;;;;5.32;2.08;;;;;;;14.94;71.92;101408.34;5031420;28;20441;-52
2022/06/06 11:54:04;;;;;;;4.65;2.05;;;;;;;15.05;71.51;101408.44;5031598;28;20041;-51
2022/06/06 11:56:51;;;;;;;7.45;2.40;;;;;;;14.91;72.00;101404.19;5011648;28;20034;-49
2022/06/06 11:59:51;;;;;;;7.50;2.38;;;;;;;14.65;72.90;101410.63;5011920;28;20026;-49
2022/06/06 12:02:50;;;;;;;5.07;2.08;;;;;;;14.66;72.96;101400.69;5017351;28;20036;-48
2022/06/06 12:05:40;;;;;;;7.53;2.75;;;;;;;14.56;73.21;101395.78;5030915;28;20130;-52
2022/06/06 12:08:37;;;;;;;11.75;3.05;;;;;;;14.68;72.66;101404.81;5031061;28;20025;-49
2022/06/06 12:11:36;;;;;;;8.07;2.78;;;;;;;14.64;72.72;101408.16;5020063;28;20079;-51
2022/06/06 12:14:05;;;;;;;8.90;2.45;;;;;;;14.62;72.21;101408.38;5031222;28;20561;-51
2022/06/06 12:16:51;;;;;;;13.10;2.80;;;;;;;14.52;72.42;101403.47;5031655;28;20394;-51
2022/06/06 12:19:38;;;;;;;11.93;3.58;;;;;;;14.43;72.48;101399.34;5030969;28;20029;-49
2022/06/06 12:22:19;;;;;;;7.43;2.35;;;;;;;14.32;73.05;101410.81;5034071;28;20140;-50
2022/06/06 12:24:45;;;;;;;9.88;2.42;;;;;;;14.35;72.91;101409.56;5035084;28;20512;-49
2022/06/06 12:27:42;;;;;;;11.20;3.28;;;;;;;14.45;72.26;101405.38;5034596;28;20117;-51
2022/06/06 12:30:38;;;;;;;8.43;2.78;;;;;;;14.62;71.07;101411.06;5035271;28;20379;-51
2022/06/06 12:33:12;;;;;;;8.77;2.95;;;;;;;14.53;71.02;101415.91;5034690;28;20466;-49
2022/06/06 12:35:50;;;;;;;8.18;2.70;;;;;;;14.39;71.98;101413.50;5021743;28;20118;-51
2022/06/06 12:38:45;;;;;;;6.38;2.55;;;;;;;14.23;73.07;101412.13;5042375;23;20545;-51
2022/06/06 12:41:30;;;;;;;7.15;2.60;;;;;;;14.36;72.42;101420.13;5101568;28;20035;-50
2022/06/06 12:44:05;;;;;;;7.97;2.40;;;;;;;14.34;72.31;101418.69;5112727;28;20028;-49
2022/06/06 12:46:54;;;;;;;8.90;2.83;;;;;;;14.41;72.14;101417.59;5105630;27;20066;-51
2022/06/06 12:49:39;;;;;;;10.68;3.10;;;;;;;14.08;73.54;101416.97;5109780;28;20030;-51
2022/06/06 12:52:36;;;;;;;8.97;2.90;;;;;;;14.29;73.37;101422.03;5115745;28;20471;-50